createdAt,value
2022-10-19T00:02:03.371Z,14.90
2022-10-19T00:04:29.852Z,14.88
2022-10-19T00:06:56.248Z,14.87
2022-10-19T00:09:22.879Z,14.70
2022-10-19T00:11:50.506Z,14.82
2022-10-19T00:14:20.231Z,14.97
2022-10-19T00:16:49.374Z,14.93
2022-10-19T00:19:21.998Z,14.92
2022-10-19T00:21:48.554Z,14.97
2022-10-19T00:24:15.238Z,14.91
2022-10-19T00:26:41.798Z,15.01
2022-10-19T00:29:08.635Z,14.93
2022-10-19T00:31:35.046Z,14.96
2022-10-19T00:34:01.512Z,15.04
2022-10-19T00:36:34.045Z,15.32
2022-10-19T00:39:01.720Z,15.25
2022-10-19T00:41:31.477Z,15.15
2022-10-19T00:44:29.763Z,15.08
2022-10-19T00:47:03.250Z,15.10
2022-10-19T00:49:33.636Z,15.12
2022-10-19T00:52:06.283Z,15.06
2022-10-19T00:54:33.703Z,15.09
2022-10-19T00:57:00.417Z,15.05
2022-10-19T00:59:31.719Z,14.93
2022-10-19T01:01:58.961Z,14.92
2022-10-19T01:04:27.171Z,14.87
2022-10-19T01:06:54.649Z,14.78
2022-10-19T01:09:21.260Z,14.89
2022-10-19T01:11:59.351Z,15.00
2022-10-19T01:14:47.282Z,15.00
2022-10-19T01:17:28.570Z,15.03
2022-10-19T01:20:25.332Z,15.22
2022-10-19T01:22:54.582Z,15.12
2022-10-19T01:25:28.285Z,15.12
2022-10-19T01:28:06.846Z,14.93
2022-10-19T01:30:43.869Z,15.01
2022-10-19T01:33:39.659Z,15.15
2022-10-19T01:36:12.719Z,15.16
2022-10-19T01:38:45.175Z,15.25
2022-10-19T01:41:25.753Z,15.28
2022-10-19T01:44:07.819Z,15.28
2022-10-19T01:46:39.189Z,15.28
2022-10-19T01:49:15.871Z,15.40
2022-10-19T01:51:49.352Z,15.22
2022-10-19T01:54:17.908Z,15.36
2022-10-19T01:56:47.173Z,15.25
2022-10-19T01:59:16.203Z,15.17
2022-10-19T02:01:46.263Z,15.35
2022-10-19T02:04:16.170Z,15.44
2022-10-19T02:06:43.246Z,15.44
2022-10-19T02:09:09.880Z,15.41
2022-10-19T02:11:37.603Z,15.38
2022-10-19T02:14:13.285Z,15.43
2022-10-19T02:16:57.693Z,15.37
2022-10-19T02:21:56.741Z,15.48
2022-10-19T02:24:23.133Z,15.43
2022-10-19T02:26:50.162Z,15.38
2022-10-19T02:29:16.940Z,15.43
2022-10-19T02:31:44.179Z,15.40
2022-10-19T02:34:11.255Z,15.45
2022-10-19T02:36:37.732Z,15.45
2022-10-19T02:39:04.900Z,15.41
2022-10-19T02:41:36.812Z,15.48
2022-10-19T02:44:18.245Z,15.54
2022-10-19T02:46:49.785Z,15.48
2022-10-19T02:49:16.684Z,15.46
2022-10-19T02:52:02.213Z,15.45
2022-10-19T02:54:29.466Z,15.51
2022-10-19T02:56:56.610Z,15.61
2022-10-19T02:59:23.384Z,15.53
2022-10-19T03:01:50.282Z,15.53
2022-10-19T03:04:17.011Z,15.88
2022-10-19T03:06:43.872Z,15.85
2022-10-19T03:09:10.618Z,15.66
2022-10-19T03:11:36.984Z,15.84
2022-10-19T03:14:03.357Z,15.70
2022-10-19T03:16:29.704Z,15.59
2022-10-19T03:18:56.077Z,15.60
2022-10-19T03:21:22.468Z,15.57
2022-10-19T03:23:48.848Z,15.55
2022-10-19T03:26:16.939Z,15.53
2022-10-19T03:28:43.513Z,15.53
2022-10-19T03:31:10.035Z,15.54
2022-10-19T03:33:36.437Z,15.55
2022-10-19T03:36:25.092Z,15.50
2022-10-19T03:38:53.471Z,15.56
2022-10-19T03:41:21.850Z,15.51
2022-10-19T03:43:48.440Z,15.51
2022-10-19T03:46:15.537Z,15.53
2022-10-19T03:48:42.611Z,15.49
2022-10-19T03:51:11.551Z,15.50
2022-10-19T03:53:39.040Z,15.50
2022-10-19T03:56:17.094Z,15.48
2022-10-19T03:58:44.991Z,15.41
2022-10-19T04:01:17.567Z,15.32
2022-10-19T04:03:44.580Z,15.23
2022-10-19T04:06:21.222Z,15.33
2022-10-19T04:08:49.395Z,15.33
2022-10-19T04:11:17.982Z,15.21
2022-10-19T04:13:44.332Z,14.98
2022-10-19T04:16:13.838Z,15.23
2022-10-19T04:18:40.318Z,15.28
2022-10-19T04:21:06.815Z,15.34
2022-10-19T04:23:35.313Z,15.29
2022-10-19T04:26:07.395Z,15.44
2022-10-19T04:28:34.926Z,15.42
2022-10-19T04:31:06.298Z,15.28
2022-10-19T04:33:33.644Z,15.77
2022-10-19T04:36:02.135Z,15.45
2022-10-19T04:38:29.754Z,15.44
2022-10-19T04:41:02.117Z,15.27
2022-10-19T04:43:29.039Z,15.17
2022-10-19T04:45:55.533Z,15.30
2022-10-19T04:48:21.953Z,15.14
2022-10-19T04:50:48.404Z,14.99
2022-10-19T04:53:14.785Z,14.97
2022-10-19T04:55:42.281Z,15.02
2022-10-19T04:58:09.268Z,15.06
2022-10-19T05:00:38.723Z,15.07
2022-10-19T05:03:05.267Z,15.17
2022-10-19T05:05:32.621Z,15.16
2022-10-19T05:07:59.110Z,15.05
2022-10-19T05:10:25.562Z,15.15
2022-10-19T05:12:52.096Z,15.19
2022-10-19T05:15:18.776Z,15.13
2022-10-19T05:17:45.205Z,15.05
2022-10-19T05:20:11.896Z,15.07
2022-10-19T05:22:39.156Z,15.07
2022-10-19T05:25:07.056Z,15.04
2022-10-19T05:27:34.252Z,15.03
2022-10-19T05:30:00.795Z,15.13
2022-10-19T05:32:28.159Z,15.07
2022-10-19T05:34:54.582Z,15.12
2022-10-19T05:37:21.642Z,15.01
2022-10-19T05:39:48.042Z,15.14
2022-10-19T05:42:14.425Z,15.05
2022-10-19T05:44:40.919Z,15.11
2022-10-19T05:47:07.487Z,15.13
2022-10-19T05:49:33.978Z,15.11
2022-10-19T05:52:00.475Z,15.09
2022-10-19T05:54:28.496Z,15.03
2022-10-19T05:56:55.270Z,15.04
2022-10-19T05:59:23.048Z,15.01
2022-10-19T06:01:49.558Z,14.92
2022-10-19T06:06:43.708Z,14.88
2022-10-19T06:09:10.790Z,14.79
2022-10-19T06:11:39.551Z,14.69
2022-10-19T06:14:10.928Z,14.76
2022-10-19T06:16:37.749Z,14.65
2022-10-19T06:19:05.532Z,14.58
2022-10-19T06:21:33.455Z,14.61
2022-10-19T06:24:05.065Z,14.52
2022-10-19T06:26:32.901Z,14.27
2022-10-19T06:29:01.035Z,14.35
2022-10-19T06:31:28.944Z,14.41
2022-10-19T06:33:56.035Z,14.45
2022-10-19T06:36:25.387Z,14.65
2022-10-19T06:38:53.086Z,14.66
2022-10-19T06:41:20.059Z,14.68
2022-10-19T06:43:50.855Z,14.54
2022-10-19T06:46:20.486Z,14.47
2022-10-19T06:48:58.585Z,14.60
2022-10-19T06:51:27.467Z,14.67
2022-10-19T06:53:57.126Z,14.79
2022-10-19T06:56:25.060Z,15.01
2022-10-19T06:58:51.559Z,14.67
2022-10-19T07:01:18.112Z,14.45
2022-10-19T07:03:44.499Z,14.58
2022-10-19T07:06:12.665Z,14.27
2022-10-19T07:08:40.566Z,14.56
2022-10-19T07:11:11.151Z,14.37
2022-10-19T07:13:38.198Z,14.59
2022-10-19T07:16:07.477Z,14.50
2022-10-19T07:18:35.350Z,14.70
2022-10-19T07:21:04.155Z,14.95
2022-10-19T07:23:32.516Z,14.98
2022-10-19T07:26:01.774Z,15.07
2022-10-19T07:28:29.763Z,15.00
2022-10-19T07:30:56.764Z,15.07
2022-10-19T07:33:23.430Z,15.15
2022-10-19T07:35:49.947Z,14.86
2022-10-19T07:38:16.345Z,14.74
2022-10-19T07:40:46.356Z,14.73
2022-10-19T07:43:14.009Z,14.69
2022-10-19T07:45:40.497Z,14.97
2022-10-19T07:48:07.024Z,14.77
2022-10-19T07:50:33.565Z,14.78
2022-10-19T07:53:00.033Z,15.30
2022-10-19T07:55:26.519Z,15.04
2022-10-19T07:57:52.990Z,15.19
2022-10-19T08:00:19.624Z,15.50
2022-10-19T08:02:59.742Z,15.51
2022-10-19T08:05:33.835Z,15.95
2022-10-19T08:08:00.226Z,15.46
2022-10-19T08:10:26.771Z,15.77
2022-10-19T08:12:53.293Z,15.46
2022-10-19T08:15:19.844Z,15.55
2022-10-19T08:17:46.350Z,15.43
2022-10-19T08:20:12.809Z,15.34
2022-10-19T08:22:39.679Z,15.12
2022-10-19T08:25:06.305Z,15.38
2022-10-19T08:27:32.723Z,15.86
2022-10-19T08:29:59.200Z,15.89
2022-10-19T08:32:25.549Z,15.88
2022-10-19T08:34:52.013Z,15.84
2022-10-19T08:37:26.321Z,15.73
2022-10-19T08:40:05.649Z,15.56
2022-10-19T08:42:50.823Z,15.55
2022-10-19T08:45:19.928Z,15.77
2022-10-19T08:48:03.825Z,15.77
2022-10-19T08:50:40.956Z,16.16
2022-10-19T08:53:12.998Z,15.65
2022-10-19T08:56:26.980Z,15.65
2022-10-19T08:59:17.166Z,15.63
2022-10-19T09:02:02.256Z,15.46
2022-10-19T09:04:36.649Z,15.39
2022-10-19T09:07:28.273Z,15.40
2022-10-19T09:10:05.477Z,15.34
2022-10-19T09:12:42.143Z,15.43
2022-10-19T09:15:25.387Z,15.55
2022-10-19T09:17:51.730Z,15.23
2022-10-19T09:20:20.038Z,15.29
2022-10-19T09:23:02.058Z,15.29
2022-10-19T09:25:30.707Z,15.28
2022-10-19T09:28:25.658Z,15.46
2022-10-19T09:30:58.277Z,15.55
2022-10-19T09:33:32.635Z,15.68
2022-10-19T09:36:02.750Z,15.24
2022-10-19T09:38:29.928Z,15.45
2022-10-19T09:41:14.321Z,15.67
2022-10-19T09:43:50.709Z,15.76
2022-10-19T09:49:16.458Z,15.93
2022-10-19T09:51:52.639Z,15.99
2022-10-19T09:54:59.970Z,16.15
2022-10-19T09:57:26.429Z,16.12
2022-10-19T09:59:55.636Z,15.92
2022-10-19T10:02:30.459Z,16.18
2022-10-19T10:05:07.763Z,16.24
2022-10-19T10:07:37.526Z,16.40
2022-10-19T10:10:35.455Z,16.33
2022-10-19T10:13:02.231Z,16.36
2022-10-19T10:15:43.916Z,16.11
2022-10-19T10:18:15.638Z,16.54
2022-10-19T10:21:00.661Z,16.60
2022-10-19T10:23:31.992Z,16.49
2022-10-19T10:25:59.588Z,16.32
2022-10-19T10:28:28.347Z,16.42
2022-10-19T10:31:04.889Z,16.51
2022-10-19T10:33:44.343Z,16.42
2022-10-19T10:36:12.569Z,16.40
2022-10-19T10:38:43.520Z,16.75
2022-10-19T10:41:14.098Z,16.84
2022-10-19T10:46:32.715Z,16.70
2022-10-19T10:49:05.324Z,16.89
2022-10-19T10:51:45.119Z,16.30
2022-10-19T10:54:26.717Z,16.24
2022-10-19T10:57:13.106Z,16.21
2022-10-19T10:59:47.288Z,16.20
2022-10-19T11:02:32.865Z,16.29
2022-10-19T11:05:25.221Z,16.20
2022-10-19T11:08:03.119Z,16.49
2022-10-19T11:10:43.289Z,16.24
2022-10-19T11:13:27.798Z,16.32
2022-10-19T11:16:13.609Z,16.21
2022-10-19T11:18:43.296Z,16.23
2022-10-19T11:21:13.370Z,16.45
2022-10-19T11:24:06.911Z,16.37
2022-10-19T11:26:52.662Z,16.39
2022-10-19T11:29:18.963Z,16.10
2022-10-19T11:31:50.413Z,15.68
2022-10-19T11:34:47.537Z,15.70
2022-10-19T11:37:29.719Z,15.66
2022-10-19T11:40:05.142Z,15.36
2022-10-19T11:42:58.924Z,15.35
2022-10-19T11:45:35.281Z,15.34
2022-10-19T11:48:25.063Z,15.38
2022-10-19T11:50:58.857Z,15.46
2022-10-19T11:54:14.622Z,15.36
2022-10-19T11:57:06.372Z,15.29
2022-10-19T11:59:45.570Z,15.37
2022-10-19T12:02:37.828Z,15.24
2022-10-19T12:05:17.888Z,15.45
2022-10-19T12:08:07.489Z,15.46
2022-10-19T12:10:40.067Z,15.25
2022-10-19T12:13:13.388Z,15.40
2022-10-19T12:15:41.275Z,15.41
2022-10-19T12:18:19.063Z,15.35
2022-10-19T12:20:51.320Z,15.26
2022-10-19T12:23:34.180Z,15.42
2022-10-19T12:26:05.665Z,15.28
2022-10-19T12:28:35.317Z,15.34
2022-10-19T12:31:02.914Z,15.43
2022-10-19T12:33:50.960Z,15.48
2022-10-19T12:36:28.853Z,15.29
2022-10-19T12:39:14.155Z,15.44
2022-10-19T12:41:52.428Z,15.67
2022-10-19T12:44:55.023Z,15.64
2022-10-19T12:47:25.452Z,15.70
2022-10-19T12:49:55.535Z,15.81
2022-10-19T12:52:52.793Z,15.35
2022-10-19T12:55:25.591Z,15.82
2022-10-19T12:58:03.092Z,15.61
2022-10-19T13:00:36.227Z,15.77
2022-10-19T13:03:15.574Z,15.75
2022-10-19T13:05:42.370Z,15.86
2022-10-19T13:08:12.097Z,16.08
2022-10-19T13:10:40.932Z,16.05
2022-10-19T13:13:47.217Z,16.16
2022-10-19T13:16:28.613Z,15.90
2022-10-19T13:19:18.317Z,16.12
2022-10-19T13:21:50.924Z,16.22
2022-10-19T13:24:23.381Z,16.05
2022-10-19T13:27:02.003Z,16.17
2022-10-19T13:29:38.325Z,16.06
2022-10-19T13:32:48.331Z,16.15
2022-10-19T13:35:29.226Z,16.24
2022-10-19T13:38:17.265Z,16.24
2022-10-19T13:40:49.797Z,16.36
2022-10-19T13:43:41.297Z,16.11
2022-10-19T13:46:09.339Z,16.21
2022-10-19T13:48:48.698Z,16.16
2022-10-19T13:51:31.231Z,16.10
2022-10-19T13:54:20.367Z,16.20
2022-10-19T13:57:09.856Z,16.33
2022-10-19T13:59:45.765Z,16.50
2022-10-19T14:02:48.044Z,16.32
2022-10-19T14:05:52.347Z,16.14
2022-10-19T14:08:43.652Z,16.32
2022-10-19T14:11:25.430Z,16.58
2022-10-19T14:14:10.528Z,16.46
2022-10-19T14:17:01.205Z,16.42
2022-10-19T14:19:42.605Z,16.31
2022-10-19T14:22:38.687Z,16.25
2022-10-19T14:25:10.901Z,16.45
2022-10-19T14:27:38.432Z,16.30
2022-10-19T14:30:05.949Z,16.37
2022-10-19T14:32:34.330Z,16.26
2022-10-19T14:35:16.133Z,16.22
2022-10-19T14:37:43.661Z,16.17
2022-10-19T14:40:31.088Z,16.16
2022-10-19T14:42:59.457Z,16.13
2022-10-19T14:45:32.530Z,16.33
2022-10-19T14:48:05.124Z,16.22
2022-10-19T14:50:45.145Z,16.23
2022-10-19T14:53:33.495Z,16.08
2022-10-19T14:56:09.913Z,16.22
2022-10-19T14:58:42.118Z,16.15
2022-10-19T15:01:10.720Z,16.13
2022-10-19T15:03:43.644Z,16.09
2022-10-19T15:06:18.105Z,16.33
2022-10-19T15:08:51.788Z,16.29
2022-10-19T15:11:39.686Z,16.33
2022-10-19T15:14:12.760Z,16.13
2022-10-19T15:16:39.037Z,16.30
2022-10-19T15:19:14.358Z,16.34
2022-10-19T15:21:40.695Z,16.27
2022-10-19T15:24:21.323Z,16.33
2022-10-19T15:27:01.796Z,16.37
2022-10-19T15:29:34.942Z,16.17
2022-10-19T15:32:39.554Z,16.18
2022-10-19T15:35:21.274Z,16.25
2022-10-19T15:37:49.973Z,16.07
2022-10-19T15:40:31.702Z,15.93
2022-10-19T15:42:58.061Z,15.98
2022-10-19T15:45:42.350Z,15.73
2022-10-19T15:48:25.811Z,15.95
2022-10-19T15:50:52.562Z,15.85
2022-10-19T15:53:20.712Z,15.72
2022-10-19T15:55:47.411Z,15.62
2022-10-19T15:58:14.566Z,15.59
2022-10-19T16:00:41.872Z,15.51
2022-10-19T16:03:09.059Z,15.45
2022-10-19T16:05:36.511Z,15.35
2022-10-19T16:08:02.942Z,15.45
2022-10-19T16:10:29.332Z,15.46
2022-10-19T16:12:55.729Z,15.44
2022-10-19T16:15:24.129Z,15.38
2022-10-19T16:17:52.080Z,15.28
2022-10-19T16:20:19.156Z,15.31
2022-10-19T16:22:46.742Z,15.29
2022-10-19T16:25:14.054Z,15.33
2022-10-19T16:27:40.517Z,15.48
2022-10-19T16:30:07.929Z,15.21
2022-10-19T16:32:34.652Z,15.17
2022-10-19T16:35:02.018Z,15.34
2022-10-19T16:37:28.379Z,15.15
2022-10-19T16:39:54.701Z,15.09
2022-10-19T16:42:21.483Z,15.06
2022-10-19T16:44:48.206Z,15.15
2022-10-19T16:47:16.925Z,15.08
2022-10-19T16:49:43.447Z,14.94
2022-10-19T16:52:13.947Z,15.07
2022-10-19T16:54:40.597Z,15.07
2022-10-19T16:57:09.750Z,14.99
2022-10-19T16:59:36.619Z,15.00
2022-10-19T17:02:02.961Z,15.06
2022-10-19T17:04:29.357Z,15.16
2022-10-19T17:06:56.993Z,15.17
2022-10-19T17:12:11.838Z,14.88
2022-10-19T17:14:40.000Z,15.01
2022-10-19T17:17:07.197Z,14.77
2022-10-19T17:19:33.829Z,14.78
2022-10-19T17:22:01.800Z,14.59
2022-10-19T17:24:28.948Z,14.60
2022-10-19T17:26:55.459Z,14.49
2022-10-19T17:29:22.976Z,14.59
2022-10-19T17:31:50.340Z,14.59
2022-10-19T17:34:17.216Z,14.59
2022-10-19T17:36:45.550Z,14.45
2022-10-19T17:39:24.393Z,14.45
2022-10-19T17:41:53.896Z,14.38
2022-10-19T17:44:21.375Z,14.34
2022-10-19T17:46:47.792Z,14.42
2022-10-19T17:49:14.397Z,14.36
2022-10-19T17:51:41.187Z,14.34
2022-10-19T17:54:12.449Z,14.16
2022-10-19T17:56:39.420Z,14.10
2022-10-19T17:59:07.880Z,14.14
2022-10-19T18:01:34.915Z,13.96
2022-10-19T18:04:01.299Z,14.01
2022-10-19T18:06:31.536Z,14.03
2022-10-19T18:08:59.502Z,14.18
2022-10-19T18:11:27.028Z,14.01
2022-10-19T18:13:56.207Z,13.99
2022-10-19T18:16:34.684Z,13.96
2022-10-19T18:19:02.317Z,13.90
2022-10-19T18:21:38.431Z,13.93
2022-10-19T18:24:07.398Z,13.93
2022-10-19T18:26:35.547Z,14.00
2022-10-19T18:29:10.029Z,14.12
2022-10-19T18:31:37.938Z,14.18
2022-10-19T18:34:06.341Z,14.23
2022-10-19T18:36:33.566Z,14.20
2022-10-19T18:39:02.861Z,14.31
2022-10-19T18:41:29.783Z,14.19
2022-10-19T18:44:03.088Z,14.21
2022-10-19T18:46:29.673Z,14.28
2022-10-19T18:48:56.086Z,14.31
2022-10-19T18:51:23.827Z,14.22
2022-10-19T18:53:50.333Z,14.30
2022-10-19T18:56:19.597Z,14.32
2022-10-19T18:58:46.819Z,14.23
2022-10-19T19:01:14.166Z,14.20
2022-10-19T19:03:43.001Z,14.22
2022-10-19T19:06:15.069Z,14.30
2022-10-19T19:08:41.709Z,14.23
2022-10-19T19:11:26.108Z,14.16
2022-10-19T19:13:57.933Z,14.22
2022-10-19T19:16:24.734Z,14.28
2022-10-19T19:18:51.401Z,14.18
2022-10-19T19:21:20.386Z,14.32
2022-10-19T19:23:47.515Z,14.10
2022-10-19T19:26:15.314Z,14.15
2022-10-19T19:28:43.484Z,14.22
2022-10-19T19:31:15.207Z,14.25
2022-10-19T19:33:43.353Z,14.15
2022-10-19T19:36:11.477Z,14.17
2022-10-19T19:38:37.924Z,14.18
2022-10-19T19:41:06.528Z,14.15
2022-10-19T19:43:34.777Z,14.21
2022-10-19T19:46:06.415Z,14.06
2022-10-19T19:48:36.397Z,14.07
2022-10-19T19:51:02.793Z,14.09
2022-10-19T19:53:29.376Z,14.08
2022-10-19T19:55:55.771Z,14.07
2022-10-19T19:58:22.137Z,14.10
2022-10-19T20:00:48.518Z,14.12
2022-10-19T20:03:15.746Z,14.12
2022-10-19T20:05:42.647Z,14.04
2022-10-19T20:08:09.656Z,14.16
2022-10-19T20:10:41.751Z,14.01
2022-10-19T20:13:08.137Z,14.09
2022-10-19T20:15:38.396Z,14.04
2022-10-19T20:18:05.360Z,14.16
2022-10-19T20:20:31.805Z,13.99
2022-10-19T20:22:58.169Z,13.98
2022-10-19T20:25:24.582Z,14.08
2022-10-19T20:27:50.966Z,14.04
2022-10-19T20:30:17.437Z,14.00
2022-10-19T20:32:43.782Z,13.92
2022-10-19T20:35:10.119Z,13.82
2022-10-19T20:37:36.504Z,13.81
2022-10-19T20:40:08.565Z,13.79
2022-10-19T20:42:35.677Z,13.71
2022-10-19T20:45:02.398Z,13.77
2022-10-19T20:47:29.403Z,13.81
2022-10-19T20:49:55.795Z,13.89
2022-10-19T20:52:22.164Z,13.69
2022-10-19T20:54:49.234Z,13.69
2022-10-19T20:57:15.646Z,13.96
2022-10-19T20:59:43.727Z,13.63
2022-10-19T21:02:11.130Z,13.63
2022-10-19T21:04:37.662Z,13.66
2022-10-19T21:07:04.885Z,13.68
2022-10-19T21:09:31.819Z,13.53
2022-10-19T21:11:58.243Z,13.61
2022-10-19T21:14:28.804Z,13.67
2022-10-19T21:16:59.501Z,13.66
2022-10-19T21:19:27.746Z,13.68
2022-10-19T21:21:56.941Z,13.61
2022-10-19T21:24:28.677Z,13.52
2022-10-19T21:26:55.109Z,13.40
2022-10-19T21:29:21.575Z,13.37
2022-10-19T21:31:51.910Z,13.24
2022-10-19T21:34:21.722Z,13.25
2022-10-19T21:36:48.822Z,13.29
2022-10-19T21:39:15.419Z,13.45
2022-10-19T21:41:41.765Z,13.30
2022-10-19T21:44:08.560Z,13.34
2022-10-19T21:46:34.992Z,13.14
2022-10-19T21:49:01.374Z,13.18
2022-10-19T21:51:36.152Z,13.13
2022-10-19T21:54:04.390Z,13.11
2022-10-19T21:56:31.703Z,13.11
2022-10-19T21:58:58.128Z,12.95
2022-10-19T22:01:27.493Z,12.89
2022-10-19T22:03:58.383Z,12.92
2022-10-19T22:06:26.145Z,12.84
2022-10-19T22:08:52.798Z,12.87
2022-10-19T22:11:20.102Z,12.79
2022-10-19T22:13:46.664Z,12.81
2022-10-19T22:16:18.989Z,12.79
2022-10-19T22:18:46.787Z,12.71
2022-10-19T22:21:20.410Z,12.74
2022-10-19T22:23:54.545Z,12.73
2022-10-19T22:26:33.617Z,12.71
2022-10-19T22:29:01.686Z,12.69
2022-10-19T22:31:30.146Z,12.74
2022-10-19T22:33:57.120Z,12.64
2022-10-19T22:36:23.460Z,12.65
2022-10-19T22:38:49.927Z,12.72
2022-10-19T22:41:16.272Z,12.77
2022-10-19T22:43:42.609Z,12.63
2022-10-19T22:46:08.982Z,12.62
2022-10-19T22:48:35.342Z,12.51
2022-10-19T22:51:01.692Z,12.50
2022-10-19T22:53:28.087Z,12.49
2022-10-19T22:55:54.429Z,12.54
2022-10-19T22:58:20.803Z,12.51
2022-10-19T23:01:01.458Z,12.53
2022-10-19T23:03:27.809Z,12.51
2022-10-19T23:05:54.177Z,12.45
2022-10-19T23:08:20.520Z,12.37
2022-10-19T23:10:46.899Z,12.38
2022-10-19T23:13:13.230Z,12.41
2022-10-19T23:15:43.157Z,12.43
2022-10-19T23:18:10.562Z,12.33
2022-10-19T23:20:36.912Z,12.25
2022-10-19T23:23:03.444Z,12.31
2022-10-19T23:25:29.800Z,12.22
2022-10-19T23:27:56.121Z,12.22
2022-10-19T23:30:22.676Z,12.22
2022-10-19T23:32:49.053Z,12.14
2022-10-19T23:35:15.490Z,12.14
2022-10-19T23:37:41.932Z,12.11
2022-10-19T23:40:08.762Z,12.07
2022-10-19T23:42:35.135Z,12.04
2022-10-19T23:45:01.470Z,12.04
2022-10-19T23:47:28.046Z,12.01
2022-10-19T23:49:54.510Z,12.04
2022-10-19T23:52:20.849Z,12.03
2022-10-19T23:54:47.256Z,11.98
2022-10-19T23:57:13.581Z,11.93
2022-10-19T23:59:39.918Z,11.86
